Time;durP1;ratioP1;P1;durP2;ratioP2;P2;SDS_P1;SDS_P2;PMS_P1;PMS_P2;Temp;Humidity;BMP_temperature;BMP_pressure;BME280_temperature;BME280_humidity;BME280_pressure;Samples;Min_cycle;Max_cycle;Signal;HPM_P1;HPM_P2
2022/07/18 00:01:00;;;;;;;2.97;2.10;;;;;;;;;;5053675;28;20769;-50
2022/07/18 00:03:26;;;;;;;2.57;1.83;;;;;;;;;;5053932;28;20416;-49
2022/07/18 00:05:52;;;;;;;3.37;1.77;;;;;;;;;;5053402;28;20896;-49
2022/07/18 00:08:18;;;;;;;5.13;2.10;;;;;;;;;;5053681;28;20451;-49
2022/07/18 00:10:44;;;;;;;2.80;2.03;;;;;;;;;;5053839;28;20904;-49
2022/07/18 00:13:10;;;;;;;2.13;1.90;;;;;;;;;;5054005;28;20402;-49
2022/07/18 00:15:36;;;;;;;3.17;2.20;;;;;;;;;;5053704;28;20400;-49
2022/07/18 00:18:03;;;;;;;6.73;2.57;;;;;;;;;;5053718;28;20378;-49
2022/07/18 00:20:29;;;;;;;2.60;1.77;;;;;;;;;;5053124;28;20441;-49
2022/07/18 00:22:55;;;;;;;2.30;1.87;;;;;;;;;;5053572;28;20779;-50
2022/07/18 00:25:22;;;;;;;6.80;2.00;;;;;;;;;;5053502;28;20452;-49
2022/07/18 00:27:48;;;;;;;3.73;2.17;;;;;;;;;;5053575;28;20813;-49
2022/07/18 00:30:14;;;;;;;5.17;1.90;;;;;;;;;;5052960;28;20510;-49
2022/07/18 00:32:40;;;;;;;2.90;2.70;;;;;;;;;;5053285;28;20458;-50
2022/07/18 00:35:06;;;;;;;2.37;2.17;;;;;;;;;;5052991;28;20890;-49
2022/07/18 00:37:32;;;;;;;1.77;1.67;;;;;;;;;;5053297;28;20438;-49
2022/07/18 00:39:58;;;;;;;2.43;2.07;;;;;;;;;;5052607;28;20431;-49
2022/07/18 00:42:24;;;;;;;4.40;2.13;;;;;;;;;;5051249;28;20414;-50
2022/07/18 00:44:56;;;;;;;2.30;1.60;;;;;;;;;;5053070;28;20728;-49
2022/07/18 00:47:22;;;;;;;2.90;1.97;;;;;;;;;;5051719;28;20391;-50
2022/07/18 00:49:48;;;;;;;3.47;2.00;;;;;;;;;;5052161;28;20440;-50
2022/07/18 00:52:15;;;;;;;2.03;1.70;;;;;;;;;;5052700;28;20379;-49
2022/07/18 00:54:40;;;;;;;2.00;1.90;;;;;;;;;;5052619;28;20374;-49
2022/07/18 00:57:07;;;;;;;2.80;2.03;;;;;;;;;;5052706;28;20425;-49
2022/07/18 01:02:17;;;;;;;1.80;1.70;;;;;;;;;;5052775;28;20772;-49
2022/07/18 01:04:43;;;;;;;2.17;2.00;;;;;;;;;;5052212;28;20472;-50
2022/07/18 01:07:09;;;;;;;1.87;1.70;;;;;;;;;;5052406;28;20428;-50
2022/07/18 01:09:35;;;;;;;2.80;2.07;;;;;;;;;;5052410;28;20432;-49
2022/07/18 01:12:02;;;;;;;2.47;2.27;;;;;;;;;;5052160;28;20508;-49
2022/07/18 01:14:28;;;;;;;2.57;2.03;;;;;;;;;;5052478;28;20398;-49
2022/07/18 01:16:54;;;;;;;4.10;2.30;;;;;;;;;;5052717;28;20396;-49
2022/07/18 01:19:20;;;;;;;4.67;2.30;;;;;;;;;;5052010;28;20888;-49
2022/07/18 01:21:46;;;;;;;2.00;1.90;;;;;;;;;;5052155;28;20404;-49
2022/07/18 01:24:12;;;;;;;2.20;2.00;;;;;;;;;;5052269;28;20378;-49
2022/07/18 01:26:38;;;;;;;2.87;2.37;;;;;;;;;;5052254;28;20776;-49
2022/07/18 01:29:04;;;;;;;2.23;2.03;;;;;;;;;;5051772;28;20523;-49
2022/07/18 01:31:33;;;;;;;2.27;2.10;;;;;;;;;;5051989;28;20451;-49
2022/07/18 01:33:59;;;;;;;2.67;2.47;;;;;;;;;;5052153;28;20372;-49
2022/07/18 01:36:25;;;;;;;2.23;2.00;;;;;;;;;;5052360;28;20425;-49
2022/07/18 01:38:51;;;;;;;2.57;2.37;;;;;;;;;;5052068;28;20436;-49
2022/07/18 01:41:17;;;;;;;3.23;2.80;;;;;;;;;;5051968;28;20919;-49
2022/07/18 01:43:43;;;;;;;3.73;2.30;;;;;;;;;;5051829;28;20388;-50
2022/07/18 01:46:10;;;;;;;5.33;1.87;;;;;;;;;;5052211;28;20384;-49
2022/07/18 01:48:39;;;;;;;2.73;2.50;;;;;;;;;;5051526;28;20457;-49
2022/07/18 01:51:09;;;;;;;2.00;1.80;;;;;;;;;;5052105;28;20373;-49
2022/07/18 01:53:35;;;;;;;6.80;3.17;;;;;;;;;;5051913;28;20399;-49
2022/07/18 01:56:01;;;;;;;3.13;1.90;;;;;;;;;;5051888;28;20403;-49
2022/07/18 01:58:27;;;;;;;7.90;2.57;;;;;;;;;;5051046;28;20434;-50
2022/07/18 02:00:53;;;;;;;4.90;2.27;;;;;;;;;;5051630;28;20378;-49
2022/07/18 02:03:19;;;;;;;3.00;2.27;;;;;;;;;;5051738;28;20878;-49
2022/07/18 02:05:45;;;;;;;3.77;2.07;;;;;;;;;;5051640;28;20376;-49
2022/07/18 02:08:11;;;;;;;2.87;2.60;;;;;;;;;;5051435;28;20433;-50
2022/07/18 02:10:37;;;;;;;3.40;2.20;;;;;;;;;;5051699;28;20952;-49
2022/07/18 02:13:03;;;;;;;2.50;2.30;;;;;;;;;;5051572;28;20864;-49
2022/07/18 02:15:29;;;;;;;2.73;2.30;;;;;;;;;;5051662;28;20377;-49
2022/07/18 02:17:55;;;;;;;3.23;2.10;;;;;;;;;;5051622;28;20878;-49
2022/07/18 02:20:21;;;;;;;2.33;2.13;;;;;;;;;;5050998;28;20762;-49
2022/07/18 02:22:47;;;;;;;3.00;1.90;;;;;;;;;;5051651;28;20402;-49
2022/07/18 02:25:13;;;;;;;3.10;2.47;;;;;;;;;;5051529;28;20437;-50
2022/07/18 02:27:40;;;;;;;3.37;2.70;;;;;;;;;;5051262;28;20449;-49
2022/07/18 02:30:07;;;;;;;5.83;2.60;;;;;;;;;;5051074;28;20410;-49
2022/07/18 02:32:36;;;;;;;2.40;2.07;;;;;;;;;;5051455;28;20436;-49
2022/07/18 02:35:02;;;;;;;3.27;2.50;;;;;;;;;;5051322;28;20405;-49
2022/07/18 02:37:28;;;;;;;2.93;2.30;;;;;;;;;;5051455;28;20591;-50
2022/07/18 02:39:54;;;;;;;3.97;2.67;;;;;;;;;;5051574;28;20751;-49
2022/07/18 02:42:20;;;;;;;2.30;1.90;;;;;;;;;;5055428;28;20577;-49
2022/07/18 02:44:46;;;;;;;4.13;2.20;;;;;;;;;;5055254;28;20437;-49
2022/07/18 02:47:12;;;;;;;2.67;2.10;;;;;;;;;;5055236;28;20387;-49
2022/07/18 02:49:39;;;;;;;2.53;2.33;;;;;;;;;;5054696;28;21008;-49
2022/07/18 02:52:06;;;;;;;2.77;2.13;;;;;;;;;;5054993;28;20376;-49
2022/07/18 02:54:33;;;;;;;4.40;2.63;;;;;;;;;;5055040;28;20372;-49
2022/07/18 02:56:59;;;;;;;3.10;2.63;;;;;;;;;;5054945;28;20439;-49
2022/07/18 02:59:26;;;;;;;3.67;2.60;;;;;;;;;;5054654;28;20512;-49
2022/07/18 03:01:52;;;;;;;2.43;2.23;;;;;;;;;;5054682;28;20486;-49
2022/07/18 03:04:19;;;;;;;3.97;2.63;;;;;;;;;;5054902;28;20376;-49
2022/07/18 03:06:45;;;;;;;4.83;2.67;;;;;;;;;;5054776;28;20707;-49
2022/07/18 03:09:11;;;;;;;5.20;2.23;;;;;;;;;;5054278;28;20533;-50
2022/07/18 03:11:37;;;;;;;2.90;2.37;;;;;;;;;;5054368;28;20411;-50
2022/07/18 03:14:03;;;;;;;4.53;2.60;;;;;;;;;;5054863;28;20702;-49
2022/07/18 03:16:29;;;;;;;3.30;2.40;;;;;;;;;;5054583;28;20398;-49
2022/07/18 03:18:55;;;;;;;5.50;2.47;;;;;;;;;;5054135;28;20444;-49
2022/07/18 03:21:21;;;;;;;4.07;2.70;;;;;;;;;;5054345;28;20384;-49
2022/07/18 03:23:47;;;;;;;4.57;2.40;;;;;;;;;;5054351;28;20402;-49
2022/07/18 03:26:13;;;;;;;3.00;2.43;;;;;;;;;;5054411;28;20409;-49
2022/07/18 03:28:39;;;;;;;2.63;2.07;;;;;;;;;;5054059;28;20448;-49
2022/07/18 03:31:05;;;;;;;3.47;2.13;;;;;;;;;;5054451;28;20404;-50
2022/07/18 03:33:31;;;;;;;2.20;2.00;;;;;;;;;;5054259;28;20397;-49
2022/07/18 03:35:58;;;;;;;2.30;2.10;;;;;;;;;;5054334;28;20414;-49
2022/07/18 03:38:24;;;;;;;3.87;1.97;;;;;;;;;;5053705;28;20424;-50
2022/07/18 03:40:50;;;;;;;2.40;2.20;;;;;;;;;;5054002;28;20409;-49
2022/07/18 03:43:15;;;;;;;2.37;2.17;;;;;;;;;;5054352;28;20401;-49
2022/07/18 03:45:41;;;;;;;3.57;2.27;;;;;;;;;;5054658;28;20928;-49
2022/07/18 03:48:07;;;;;;;3.43;2.37;;;;;;;;;;5055142;28;20445;-48
2022/07/18 03:50:33;;;;;;;2.67;2.47;;;;;;;;;;5053433;28;20914;-49
2022/07/18 03:53:00;;;;;;;2.30;2.10;;;;;;;;;;5053558;28;20764;-48
2022/07/18 03:55:26;;;;;;;6.57;2.30;;;;;;;;;;5053895;28;20411;-49
2022/07/18 03:57:51;;;;;;;4.40;2.03;;;;;;;;;;5054375;28;20509;-49
2022/07/18 04:00:18;;;;;;;2.70;2.00;;;;;;;;;;5053615;28;20438;-48
2022/07/18 04:02:45;;;;;;;6.47;2.33;;;;;;;;;;5053522;28;20400;-50
2022/07/18 04:05:11;;;;;;;4.30;2.23;;;;;;;;;;5054005;28;20950;-50
2022/07/18 04:07:37;;;;;;;5.60;2.40;;;;;;;;;;5053468;28;20368;-49
2022/07/18 04:10:04;;;;;;;3.90;2.20;;;;;;;;;;5053197;28;20391;-50
2022/07/18 04:12:30;;;;;;;2.67;2.47;;;;;;;;;;5053367;28;20940;-51
2022/07/18 04:14:56;;;;;;;4.80;2.20;;;;;;;;;;5053388;28;20832;-49
2022/07/18 04:17:23;;;;;;;2.43;2.23;;;;;;;;;;5053503;28;20437;-50
2022/07/18 04:19:49;;;;;;;2.83;2.23;;;;;;;;;;5052905;28;20918;-50
2022/07/18 04:22:15;;;;;;;4.00;2.20;;;;;;;;;;5053066;28;20401;-50
2022/07/18 04:24:41;;;;;;;2.10;2.00;;;;;;;;;;5053216;28;20405;-50
2022/07/18 04:27:07;;;;;;;3.30;2.40;;;;;;;;;;5053292;28;20400;-49
2022/07/18 04:29:33;;;;;;;4.37;2.03;;;;;;;;;;5052684;28;20600;-49
2022/07/18 04:31:59;;;;;;;2.67;2.10;;;;;;;;;;5053026;28;20397;-50
2022/07/18 04:34:25;;;;;;;5.90;3.03;;;;;;;;;;5053501;28;20398;-50
2022/07/18 04:36:51;;;;;;;2.90;2.50;;;;;;;;;;5052878;28;20396;-50
2022/07/18 04:39:17;;;;;;;3.53;1.73;;;;;;;;;;5052855;28;20451;-49
2022/07/18 04:41:43;;;;;;;2.17;1.97;;;;;;;;;;5052831;28;20383;-49
2022/07/18 04:44:09;;;;;;;2.70;1.90;;;;;;;;;;5052850;28;20416;-50
2022/07/18 04:46:35;;;;;;;3.40;1.90;;;;;;;;;;5052774;28;20484;-50
2022/07/18 04:49:01;;;;;;;3.30;2.00;;;;;;;;;;5046617;28;20475;-50
2022/07/18 04:51:28;;;;;;;3.67;2.37;;;;;;;;;;5045245;28;20795;-50
2022/07/18 04:53:54;;;;;;;3.87;2.40;;;;;;;;;;5052709;28;20480;-50
2022/07/18 04:56:21;;;;;;;2.57;2.27;;;;;;;;;;5051035;28;20395;-49
2022/07/18 04:58:47;;;;;;;3.80;2.17;;;;;;;;;;5045138;28;20429;-51
2022/07/18 05:01:13;;;;;;;10.00;2.30;;;;;;;;;;5032495;28;20892;-50
2022/07/18 05:03:39;;;;;;;13.23;9.73;;;;;;;;;;5036597;28;20421;-50
2022/07/18 05:06:06;;;;;;;31.80;21.57;;;;;;;;;;5052168;28;20467;-50
2022/07/18 05:08:32;;;;;;;11.47;6.80;;;;;;;;;;5050183;28;20459;-50
2022/07/18 05:10:58;;;;;;;5.70;3.40;;;;;;;;;;5041065;28;20384;-50
2022/07/18 05:13:24;;;;;;;16.97;12.27;;;;;;;;;;5050637;28;20377;-50
2022/07/18 05:15:50;;;;;;;4.17;3.60;;;;;;;;;;5032008;28;20404;-50
2022/07/18 05:18:16;;;;;;;7.17;2.77;;;;;;;;;;5031683;28;20390;-50
2022/07/18 05:20:42;;;;;;;2.23;2.00;;;;;;;;;;5044064;28;20402;-50
2022/07/18 05:23:08;;;;;;;5.60;2.40;;;;;;;;;;5051770;28;20388;-50
2022/07/18 05:25:34;;;;;;;4.97;3.40;;;;;;;;;;5051928;28;20923;-50
2022/07/18 05:28:00;;;;;;;2.80;2.60;;;;;;;;;;5044896;28;20435;-50
2022/07/18 05:30:26;;;;;;;11.43;2.80;;;;;;;;;;5031485;28;20498;-50
2022/07/18 05:32:53;;;;;;;2.50;2.23;;;;;;;;;;5040372;28;20416;-50
2022/07/18 05:35:19;;;;;;;2.53;2.30;;;;;;;;;;5051862;28;20675;-50
2022/07/18 05:37:45;;;;;;;2.30;2.10;;;;;;;;;;5051602;28;20407;-50
2022/07/18 05:40:12;;;;;;;5.90;3.40;;;;;;;;;;5051242;28;20399;-50
2022/07/18 05:42:39;;;;;;;3.23;2.43;;;;;;;;;;5033130;28;20421;-50
2022/07/18 05:45:05;;;;;;;5.40;2.40;;;;;;;;;;5043003;28;20445;-50
2022/07/18 05:47:31;;;;;;;3.43;3.07;;;;;;;;;;5040324;28;20413;-50
2022/07/18 05:49:57;;;;;;;5.30;2.67;;;;;;;;;;5034330;28;20435;-50
2022/07/18 05:52:23;;;;;;;2.60;2.30;;;;;;;;;;5031528;28;20445;-51
2022/07/18 05:54:49;;;;;;;2.43;2.20;;;;;;;;;;5035461;28;20412;-50
2022/07/18 05:57:15;;;;;;;3.10;2.40;;;;;;;;;;5032552;28;20948;-50
2022/07/18 05:59:41;;;;;;;9.10;2.40;;;;;;;;;;5041517;28;20455;-50
2022/07/18 06:02:07;;;;;;;6.47;2.10;;;;;;;;;;5047755;28;20778;-50
2022/07/18 06:04:33;;;;;;;4.50;2.00;;;;;;;;;;5041662;28;20413;-50
2022/07/18 06:06:59;;;;;;;3.30;2.03;;;;;;;;;;5051337;28;20483;-50
2022/07/18 06:09:25;;;;;;;2.10;2.00;;;;;;;;;;5033956;28;20497;-50
2022/07/18 06:11:51;;;;;;;8.90;1.90;;;;;;;;;;5032066;28;20417;-50
2022/07/18 06:14:17;;;;;;;5.83;2.57;;;;;;;;;;5051057;28;20415;-50
2022/07/18 06:16:43;;;;;;;4.40;2.17;;;;;;;;;;5055264;28;20420;-50
2022/07/18 06:19:09;;;;;;;7.00;3.13;;;;;;;;;;5042767;28;20440;-50
2022/07/18 06:21:35;;;;;;;8.13;2.43;;;;;;;;;;5042256;28;20430;-50
2022/07/18 06:24:01;;;;;;;6.03;2.60;;;;;;;;;;5035530;28;20407;-50
2022/07/18 06:26:27;;;;;;;2.77;2.40;;;;;;;;;;5037627;28;20430;-50
2022/07/18 06:28:53;;;;;;;3.70;2.00;;;;;;;;;;5045681;28;20500;-50
2022/07/18 06:31:19;;;;;;;7.70;2.30;;;;;;;;;;5054526;28;20790;-50
2022/07/18 06:33:46;;;;;;;2.00;1.80;;;;;;;;;;5039457;28;20424;-50
2022/07/18 06:36:13;;;;;;;2.57;2.27;;;;;;;;;;5051381;28;20418;-51
2022/07/18 06:38:39;;;;;;;3.60;2.00;;;;;;;;;;5034998;28;20412;-51
2022/07/18 06:41:07;;;;;;;3.83;1.77;;;;;;;;;;5039575;28;20414;-50
2022/07/18 06:43:33;;;;;;;11.73;2.20;;;;;;;;;;5042915;28;20795;-50
2022/07/18 06:45:59;;;;;;;6.20;2.30;;;;;;;;;;5036464;28;20424;-50
2022/07/18 06:48:26;;;;;;;8.23;1.70;;;;;;;;;;5050979;28;20548;-50
2022/07/18 06:50:52;;;;;;;2.17;1.73;;;;;;;;;;5045893;28;20413;-50
2022/07/18 06:53:17;;;;;;;2.00;1.77;;;;;;;;;;5047115;28;20420;-50
2022/07/18 06:55:43;;;;;;;2.93;1.57;;;;;;;;;;5042595;28;20417;-51
2022/07/18 06:58:09;;;;;;;4.03;2.20;;;;;;;;;;5043865;28;20438;-50
2022/07/18 07:00:35;;;;;;;4.40;1.60;;;;;;;;;;5054121;28;20892;-50
2022/07/18 07:03:01;;;;;;;3.20;1.80;;;;;;;;;;5053054;28;20444;-50
2022/07/18 07:05:27;;;;;;;4.03;2.00;;;;;;;;;;5037809;28;20933;-50
2022/07/18 07:07:53;;;;;;;4.60;1.80;;;;;;;;;;5054374;28;20818;-50
2022/07/18 07:10:20;;;;;;;2.63;2.00;;;;;;;;;;5037384;28;20425;-50
2022/07/18 07:12:47;;;;;;;3.53;1.80;;;;;;;;;;5045603;28;20414;-50
2022/07/18 07:15:14;;;;;;;3.13;2.00;;;;;;;;;;5034368;28;20905;-50
2022/07/18 07:17:40;;;;;;;4.73;1.50;;;;;;;;;;5049489;28;20897;-50
2022/07/18 07:20:07;;;;;;;2.90;1.80;;;;;;;;;;5053301;28;20440;-50
2022/07/18 07:22:40;;;;;;;1.77;1.67;;;;;;;;;;5048553;28;20926;-51
2022/07/18 07:25:06;;;;;;;1.60;1.50;;;;;;;;;;5034303;28;20475;-50
2022/07/18 07:27:32;;;;;;;2.70;1.93;;;;;;;;;;5050921;28;20420;-51
2022/07/18 07:29:58;;;;;;;2.10;1.60;;;;;;;;;;5040289;28;20436;-50
2022/07/18 07:32:24;;;;;;;3.77;1.83;;;;;;;;;;5034424;28;20921;-51
2022/07/18 07:34:50;;;;;;;3.13;1.97;;;;;;;;;;5035436;28;20818;-51
2022/07/18 07:37:16;;;;;;;3.30;1.67;;;;;;;;;;5034093;28;20431;-51
2022/07/18 07:39:42;;;;;;;4.27;1.93;;;;;;;;;;5045696;28;20441;-50
2022/07/18 07:42:08;;;;;;;5.80;1.83;;;;;;;;;;5051533;28;20935;-50
2022/07/18 07:44:34;;;;;;;2.43;2.23;;;;;;;;;;5048680;28;20422;-50
2022/07/18 07:47:00;;;;;;;2.00;1.50;;;;;;;;;;5038516;28;20416;-51
2022/07/18 07:49:26;;;;;;;2.20;1.57;;;;;;;;;;5041496;28;20455;-51
2022/07/18 07:51:52;;;;;;;7.47;1.73;;;;;;;;;;5034707;28;20421;-51
2022/07/18 07:54:18;;;;;;;5.13;1.80;;;;;;;;;;5045699;28;20773;-51
2022/07/18 07:56:44;;;;;;;1.60;1.23;;;;;;;;;;5042849;28;20915;-51
2022/07/18 07:59:10;;;;;;;3.53;1.37;;;;;;;;;;5033863;28;21270;-50
2022/07/18 08:01:36;;;;;;;1.37;1.27;;;;;;;;;;5035469;28;20414;-51
2022/07/18 08:04:02;;;;;;;3.77;1.40;;;;;;;;;;5034925;28;20410;-50
2022/07/18 08:06:28;;;;;;;1.60;1.50;;;;;;;;;;5052962;28;20448;-50
2022/07/18 08:08:55;;;;;;;3.40;1.90;;;;;;;;;;5051443;28;20507;-51
2022/07/18 08:11:21;;;;;;;1.60;1.47;;;;;;;;;;5037197;28;20957;-51
2022/07/18 08:13:47;;;;;;;1.50;1.40;;;;;;;;;;5048799;28;20496;-51
2022/07/18 08:16:13;;;;;;;2.53;1.40;;;;;;;;;;5037928;28;20902;-51
2022/07/18 08:18:39;;;;;;;2.00;1.13;;;;;;;;;;5042769;28;20421;-52
2022/07/18 08:21:05;;;;;;;3.17;1.50;;;;;;;;;;5035316;28;20438;-50
2022/07/18 08:23:31;;;;;;;1.30;1.03;;;;;;;;;;5042740;28;20418;-51
2022/07/18 08:25:57;;;;;;;2.80;1.63;;;;;;;;;;5041130;28;20475;-51
2022/07/18 08:28:24;;;;;;;2.40;1.30;;;;;;;;;;5052106;28;20487;-51
2022/07/18 08:30:50;;;;;;;1.97;1.03;;;;;;;;;;5045336;28;20441;-52
2022/07/18 08:33:16;;;;;;;2.17;1.20;;;;;;;;;;5031497;28;20925;-51
2022/07/18 08:35:42;;;;;;;2.03;1.00;;;;;;;;;;5038678;28;20421;-51
2022/07/18 08:38:08;;;;;;;3.40;1.40;;;;;;;;;;5040786;28;20872;-51
2022/07/18 08:40:35;;;;;;;1.73;1.30;;;;;;;;;;5037887;28;20531;-51
2022/07/18 08:43:01;;;;;;;1.20;0.97;;;;;;;;;;5052445;28;20364;-51
2022/07/18 08:45:27;;;;;;;2.33;1.70;;;;;;;;;;5033788;28;21109;-51
2022/07/18 08:47:53;;;;;;;1.20;1.10;;;;;;;;;;5038299;28;20449;-51
2022/07/18 08:50:19;;;;;;;1.33;1.00;;;;;;;;;;5043288;28;20473;-51
2022/07/18 08:52:45;;;;;;;2.47;1.50;;;;;;;;;;5035495;28;20413;-51
2022/07/18 08:55:12;;;;;;;3.07;1.53;;;;;;;;;;5043585;28;20449;-51
2022/07/18 08:57:38;;;;;;;3.13;1.30;;;;;;;;;;5032536;28;20429;-51
2022/07/18 09:00:06;;;;;;;1.93;1.07;;;;;;;;;;5043948;28;20477;-52
2022/07/18 09:02:31;;;;;;;1.30;1.00;;;;;;;;;;5036730;28;20417;-52
2022/07/18 09:05:00;;;;;;;1.43;1.10;;;;;;;;;;5043193;28;20475;-52
2022/07/18 09:07:30;;;;;;;3.30;1.10;;;;;;;;;;5050408;28;20429;-52
2022/07/18 09:10:00;;;;;;;1.07;0.97;;;;;;;;;;5044124;28;20460;-51
2022/07/18 09:12:30;;;;;;;3.53;1.30;;;;;;;;;;5042837;28;20436;-52
2022/07/18 09:14:56;;;;;;;1.10;1.00;;;;;;;;;;5039233;28;20496;-53
2022/07/18 09:17:23;;;;;;;1.37;1.20;;;;;;;;;;5035239;28;20448;-51
2022/07/18 09:19:57;;;;;;;1.73;1.33;;;;;;;;;;5035876;28;21288;-51
2022/07/18 09:22:24;;;;;;;1.83;1.10;;;;;;;;;;5040951;28;20405;-52
2022/07/18 09:24:51;;;;;;;1.40;1.00;;;;;;;;;;5051563;28;20781;-52
2022/07/18 09:27:23;;;;;;;2.13;1.10;;;;;;;;;;5050533;28;20800;-52
2022/07/18 09:30:06;;;;;;;2.40;1.80;;;;;;;;;;5051541;28;20574;-52
2022/07/18 09:32:32;;;;;;;1.27;1.17;;;;;;;;;;5030865;28;20508;-52
2022/07/18 09:35:04;;;;;;;1.63;1.20;;;;;;;;;;5030055;28;20505;-52
2022/07/18 09:37:30;;;;;;;2.23;1.40;;;;;;;;;;5050622;28;20591;-51
2022/07/18 09:40:14;;;;;;;1.47;1.30;;;;;;;;;;5038686;28;20485;-51
2022/07/18 09:42:40;;;;;;;1.37;1.20;;;;;;;;;;5031738;28;20417;-52
2022/07/18 09:45:07;;;;;;;2.70;1.60;;;;;;;;;;5043214;28;20813;-53
2022/07/18 09:47:36;;;;;;;1.40;1.10;;;;;;;;;;5044805;28;20417;-52
2022/07/18 09:50:03;;;;;;;1.40;1.30;;;;;;;;;;5031392;28;20446;-53
2022/07/18 09:52:29;;;;;;;1.50;1.30;;;;;;;;;;5039396;28;20429;-51
2022/07/18 09:55:03;;;;;;;1.30;1.10;;;;;;;;;;5050037;28;20936;-53
2022/07/18 09:57:29;;;;;;;1.40;1.30;;;;;;;;;;5051093;28;20717;-52
2022/07/18 09:59:56;;;;;;;5.23;1.30;;;;;;;;;;5042405;28;20465;-52
2022/07/18 10:02:22;;;;;;;1.40;1.13;;;;;;;;;;5032750;28;20437;-52
2022/07/18 10:04:49;;;;;;;1.50;1.03;;;;;;;;;;5035941;28;20401;-52
2022/07/18 10:07:16;;;;;;;2.20;2.00;;;;;;;;;;5031738;28;20820;-52
2022/07/18 10:09:44;;;;;;;1.90;1.70;;;;;;;;;;5050655;28;20465;-53
2022/07/18 10:12:10;;;;;;;1.70;1.60;;;;;;;;;;5036340;28;20424;-53
2022/07/18 10:14:36;;;;;;;1.57;1.47;;;;;;;;;;5034540;28;20413;-53
2022/07/18 10:17:03;;;;;;;2.07;1.57;;;;;;;;;;5035655;28;20428;-53
2022/07/18 10:19:29;;;;;;;1.30;1.20;;;;;;;;;;5050017;28;20476;-53
2022/07/18 10:21:56;;;;;;;1.63;1.27;;;;;;;;;;5050213;28;20482;-53
2022/07/18 10:24:24;;;;;;;1.77;1.47;;;;;;;;;;5042711;28;20500;-52
2022/07/18 10:27:09;;;;;;;1.60;1.50;;;;;;;;;;5051051;28;20421;-52
2022/07/18 10:29:36;;;;;;;1.40;1.30;;;;;;;;;;5044325;28;20461;-52
2022/07/18 10:32:04;;;;;;;1.70;1.60;;;;;;;;;;5032348;28;20423;-53
2022/07/18 10:34:34;;;;;;;1.40;1.30;;;;;;;;;;5037103;28;20501;-53
2022/07/18 10:37:02;;;;;;;3.63;1.50;;;;;;;;;;5051161;28;20452;-52
2022/07/18 10:39:44;;;;;;;1.93;1.80;;;;;;;;;;5046047;28;20437;-52
2022/07/18 10:42:10;;;;;;;1.37;1.27;;;;;;;;;;5031317;28;20428;-53
2022/07/18 10:44:39;;;;;;;2.30;1.60;;;;;;;;;;5037979;28;20437;-54
2022/07/18 10:47:05;;;;;;;5.60;1.57;;;;;;;;;;5045890;28;20872;-52
2022/07/18 10:49:49;;;;;;;2.30;1.43;;;;;;;;;;5031447;28;20462;-53
2022/07/18 10:52:35;;;;;;;2.30;1.60;;;;;;;;;;5031303;28;20402;-53
2022/07/18 10:55:04;;;;;;;4.77;1.70;;;;;;;;;;5031152;28;20406;-53
2022/07/18 10:57:31;;;;;;;1.40;1.30;;;;;;;;;;5031155;28;20934;-53
2022/07/18 11:00:02;;;;;;;1.37;1.27;;;;;;;;;;5030865;28;20913;-53
2022/07/18 11:02:32;;;;;;;1.43;1.33;;;;;;;;;;5034048;28;20757;-53
2022/07/18 11:04:58;;;;;;;1.53;1.40;;;;;;;;;;5034980;28;20460;-52
2022/07/18 11:07:24;;;;;;;1.47;1.30;;;;;;;;;;5034056;28;20398;-52
2022/07/18 11:09:50;;;;;;;1.57;1.47;;;;;;;;;;5033495;28;20877;-53
2022/07/18 11:12:26;;;;;;;1.80;1.70;;;;;;;;;;5032264;28;20777;-52
2022/07/18 11:14:59;;;;;;;1.50;1.40;;;;;;;;;;5034682;28;20167;-52
2022/07/18 11:17:44;;;;;;;1.33;1.23;;;;;;;;;;5034529;28;20398;-53
2022/07/18 11:20:28;;;;;;;1.30;1.20;;;;;;;;;;5034052;28;20457;-53
2022/07/18 11:22:55;;;;;;;1.60;1.50;;;;;;;;;;5034471;28;20489;-53
2022/07/18 11:25:24;;;;;;;1.57;1.27;;;;;;;;;;5039460;28;20426;-52
2022/07/18 11:27:50;;;;;;;4.20;1.40;;;;;;;;;;5052500;28;20413;-52
2022/07/18 11:30:17;;;;;;;1.40;1.30;;;;;;;;;;5053943;28;20470;-53
2022/07/18 11:32:43;;;;;;;5.33;2.10;;;;;;;;;;5054258;28;20401;-52
2022/07/18 11:35:09;;;;;;;3.33;1.27;;;;;;;;;;5054487;28;20409;-52
2022/07/18 11:37:39;;;;;;;11.33;1.73;;;;;;;;;;5054213;28;20170;-52
2022/07/18 11:40:06;;;;;;;2.07;1.27;;;;;;;;;;5053787;28;20486;-52
2022/07/18 11:42:39;;;;;;;2.90;1.30;;;;;;;;;;5054087;28;20489;-52
2022/07/18 11:45:09;;;;;;;2.30;1.50;;;;;;;;;;5053990;28;20416;-51
2022/07/18 11:47:46;;;;;;;1.50;1.40;;;;;;;;;;5054178;28;20444;-52
2022/07/18 11:50:13;;;;;;;3.53;1.50;;;;;;;;;;5053825;28;20427;-52
2022/07/18 11:52:39;;;;;;;1.40;1.20;;;;;;;;;;5053879;28;20394;-52
2022/07/18 11:55:06;;;;;;;1.40;1.30;;;;;;;;;;5054091;28;21008;-52
2022/07/18 11:57:33;;;;;;;1.20;1.10;;;;;;;;;;5053990;28;20901;-52
2022/07/18 11:59:59;;;;;;;2.57;1.20;;;;;;;;;;5053710;28;20511;-52
2022/07/18 12:02:44;;;;;;;2.13;1.30;;;;;;;;;;5053950;28;20486;-52
2022/07/18 12:05:10;;;;;;;1.80;1.40;;;;;;;;;;5052580;28;20421;-52
2022/07/18 12:07:36;;;;;;;1.63;1.53;;;;;;;;;;5053754;28;20413;-52
2022/07/18 12:10:18;;;;;;;2.03;1.57;;;;;;;;;;5052913;28;20203;-52
2022/07/18 12:12:44;;;;;;;2.70;1.20;;;;;;;;;;5053110;28;20218;-52
2022/07/18 12:15:10;;;;;;;1.53;1.37;;;;;;;;;;5053556;28;20402;-52
2022/07/18 12:17:50;;;;;;;1.43;1.30;;;;;;;;;;5053466;28;20408;-52
2022/07/18 12:20:17;;;;;;;2.13;1.40;;;;;;;;;;5052952;28;20417;-53
2022/07/18 12:23:02;;;;;;;1.60;1.50;;;;;;;;;;5053318;28;20413;-52
2022/07/18 12:25:39;;;;;;;2.40;1.50;;;;;;;;;;5053236;28;20397;-53
2022/07/18 12:28:18;;;;;;;2.40;1.43;;;;;;;;;;5053126;28;20935;-53
2022/07/18 12:30:45;;;;;;;1.40;1.20;;;;;;;;;;5052806;28;20421;-53
2022/07/18 12:33:11;;;;;;;1.50;1.40;;;;;;;;;;5053071;28;20874;-52
2022/07/18 12:35:38;;;;;;;2.03;1.40;;;;;;;;;;5053142;28;20405;-52
2022/07/18 12:38:12;;;;;;;1.10;1.00;;;;;;;;;;5053067;28;20405;-52
2022/07/18 12:40:44;;;;;;;2.83;1.60;;;;;;;;;;5053050;28;20793;-52
2022/07/18 12:43:12;;;;;;;1.77;1.60;;;;;;;;;;5052781;28;20462;-52
2022/07/18 12:45:39;;;;;;;2.90;1.37;;;;;;;;;;5052910;28;20409;-52
2022/07/18 12:48:06;;;;;;;1.50;1.40;;;;;;;;;;5052744;28;20952;-52
2022/07/18 12:50:32;;;;;;;2.40;1.60;;;;;;;;;;5052717;28;20426;-52
2022/07/18 12:52:58;;;;;;;1.60;1.50;;;;;;;;;;5052877;28;20409;-52
2022/07/18 12:55:25;;;;;;;1.67;1.33;;;;;;;;;;5052744;28;20171;-52
2022/07/18 12:57:51;;;;;;;1.30;1.20;;;;;;;;;;5052458;28;21106;-52
2022/07/18 13:00:17;;;;;;;1.40;1.20;;;;;;;;;;5052200;28;20421;-52
2022/07/18 13:02:46;;;;;;;1.40;1.30;;;;;;;;;;5052535;28;20240;-52
2022/07/18 13:05:12;;;;;;;3.23;1.60;;;;;;;;;;5052651;28;20167;-53
2022/07/18 13:07:38;;;;;;;1.83;1.60;;;;;;;;;;5052397;28;20398;-52
2022/07/18 13:10:04;;;;;;;6.70;1.30;;;;;;;;;;5052086;28;20457;-52
2022/07/18 13:12:31;;;;;;;1.43;1.33;;;;;;;;;;5052053;28;20405;-51
2022/07/18 13:14:57;;;;;;;2.07;1.63;;;;;;;;;;5052440;28;20496;-51
2022/07/18 13:17:23;;;;;;;2.73;1.40;;;;;;;;;;5052343;28;20488;-53
2022/07/18 13:19:49;;;;;;;1.77;1.57;;;;;;;;;;5051988;28;20433;-53
2022/07/18 13:22:15;;;;;;;1.60;1.50;;;;;;;;;;5052127;28;20397;-52
2022/07/18 13:24:41;;;;;;;1.93;1.60;;;;;;;;;;5051581;28;20428;-53
2022/07/18 13:27:07;;;;;;;1.67;1.57;;;;;;;;;;5052066;28;20872;-51
2022/07/18 13:29:33;;;;;;;4.70;1.20;;;;;;;;;;5051808;28;20195;-52
2022/07/18 13:31:59;;;;;;;1.50;1.40;;;;;;;;;;5051956;28;20873;-52
2022/07/18 13:34:25;;;;;;;1.40;1.30;;;;;;;;;;5052088;28;20167;-51
2022/07/18 13:36:52;;;;;;;1.67;1.57;;;;;;;;;;5051987;28;20167;-52
2022/07/18 13:39:19;;;;;;;2.40;1.50;;;;;;;;;;5051729;28;20586;-51
2022/07/18 13:41:45;;;;;;;1.50;1.40;;;;;;;;;;5051651;28;20893;-51
2022/07/18 13:44:11;;;;;;;1.47;1.37;;;;;;;;;;5052114;28;20401;-51
2022/07/18 13:46:39;;;;;;;3.13;1.70;;;;;;;;;;5051809;28;20991;-52
2022/07/18 13:49:05;;;;;;;2.40;1.40;;;;;;;;;;5051345;28;20465;-51
2022/07/18 13:51:32;;;;;;;2.23;1.67;;;;;;;;;;5051888;28;20789;-52
2022/07/18 13:53:57;;;;;;;7.13;1.50;;;;;;;;;;5051883;28;20412;-52
2022/07/18 13:56:23;;;;;;;2.53;1.60;;;;;;;;;;5051609;28;20401;-51
2022/07/18 13:58:49;;;;;;;2.57;1.80;;;;;;;;;;5051269;28;20210;-52
2022/07/18 14:01:15;;;;;;;1.50;1.40;;;;;;;;;;5051740;28;20260;-53
2022/07/18 14:03:41;;;;;;;2.23;1.00;;;;;;;;;;5051821;28;20166;-52
2022/07/18 14:06:07;;;;;;;3.63;1.63;;;;;;;;;;5051751;28;20958;-53
2022/07/18 14:08:34;;;;;;;1.67;1.43;;;;;;;;;;5051173;28;20194;-51
2022/07/18 14:11:00;;;;;;;2.30;1.40;;;;;;;;;;5051577;28;20551;-52
2022/07/18 14:13:26;;;;;;;4.10;1.33;;;;;;;;;;5051742;28;20900;-52
2022/07/18 14:15:52;;;;;;;2.23;1.37;;;;;;;;;;5051582;28;20528;-52
2022/07/18 14:18:18;;;;;;;1.40;1.30;;;;;;;;;;5051314;28;20171;-52
2022/07/18 14:20:44;;;;;;;1.30;1.20;;;;;;;;;;5051378;28;20289;-52
2022/07/18 14:23:10;;;;;;;2.30;1.40;;;;;;;;;;5051393;28;20228;-52
2022/07/18 14:25:36;;;;;;;1.87;1.67;;;;;;;;;;5051440;28;20405;-52
2022/07/18 14:28:02;;;;;;;1.50;1.33;;;;;;;;;;5051530;28;20809;-52
2022/07/18 14:30:28;;;;;;;1.40;1.30;;;;;;;;;;5051189;28;20448;-52
2022/07/18 14:32:54;;;;;;;4.93;1.40;;;;;;;;;;5051658;28;20401;-52
2022/07/18 14:35:20;;;;;;;1.60;1.50;;;;;;;;;;5052720;28;20492;-52
2022/07/18 14:37:46;;;;;;;1.50;1.40;;;;;;;;;;5055379;28;20166;-51
2022/07/18 14:40:12;;;;;;;1.80;1.20;;;;;;;;;;5055145;28;20659;-53
2022/07/18 14:42:38;;;;;;;1.80;1.23;;;;;;;;;;5055221;28;20400;-53
2022/07/18 14:45:05;;;;;;;2.37;1.70;;;;;;;;;;5055351;28;20162;-52